Manvel, ND (58256)

1:16 AM CDT on July 28, 2016 (GMT -0500)
Pic Gilby | | Change Station

Elev 873 ft 48.08 °N, 97.47 °W | Updated 13 seconds ago

Clear
Clear
62.6 °F
Feels Like 62.6 °F
N
1.8
Wind Variable Wind from North
Gusts 2.5 mph

Today
High -- | Low -- °F
--% Chance of Precip.
Yesterday
High -- | Low -- °F
Precip. -- in
Pressure 30.09 in
Visibility 10.0 miles
Clouds Clear
Dew Point 57 °F
Humidity 81%
Rainfall 0.00 in
Snow Depth Not available.
6:00 AM 9:09 PM
Waning Crescent, 35% visible
METAR KGFK 280553Z AUTO 35006KT 10SM CLR 16/14 A3009 RMK AO2 SLP188 T01610139 10239 20161 402560161 51005 TSNO
Pressure 30.09 in
Visibility 10.0 miles
Clouds Clear
Dew Point 57 °F
Humidity 81%
Rainfall 0.00 in
Snow Depth Not available.
6:00 AM 9:09 PM
Waning Crescent, 35% visible
METAR KGFK 280553Z AUTO 35006KT 10SM CLR 16/14 A3009 RMK AO2 SLP188 T01610139 10239 20161 402560161 51005 TSNO

10-Day Weather Forecast

Almanac

Astronomy

Jul. 28, 2016 Rise Set
Actual Time
Civil Twilight
Nautical Twilight
Astronomical Twilight
Moon
Length of Visible Light
Length of Day
Tomorrow will be .
, % of the Moon is Illuminated

Today's Extremes

State Highs State Lows

Community

WunderPhotos

Upload Photos

1,928,064 photos uploaded!

WunderBlog® & News

Nearby

Air Quality

  Air Quality AQ Index Pollutant
Not available.

Snow Depth

Station Depth Elevation

Earthquake Activity

City Distance Mag. Time & Date
Minimum magnitude displayed is 2.5.

Coastal Water Temperatures

Place Temperature

Stations

Nearby Weather Stations

Station Location Temp. Windchill Dew Point Humidity Wind Precip. Elev Updated Type
                   

Watches & Warnings

There are currently no watches in effect.